sensor_id;sensor_type;location;lat;lon;timestamp;P1;durP1;ratioP1;P2;durP2;ratioP2
56427;SDS011;42331;53.578;9.760;2023-10-31T00:02:13;14.70;;;7.47;;
56427;SDS011;42331;53.578;9.760;2023-10-31T00:04:44;8.87;;;6.10;;
56427;SDS011;42331;53.578;9.760;2023-10-31T00:07:15;5.82;;;4.18;;
56427;SDS011;42331;53.578;9.760;2023-10-31T00:09:46;9.05;;;6.10;;
56427;SDS011;42331;53.578;9.760;2023-10-31T00:12:17;10.38;;;5.05;;
56427;SDS011;42331;53.578;9.760;2023-10-31T00:14:48;7.93;;;5.50;;
56427;SDS011;42331;53.578;9.760;2023-10-31T00:17:19;10.50;;;5.60;;
56427;SDS011;42331;53.578;9.760;2023-10-31T00:19:50;8.40;;;5.57;;
56427;SDS011;42331;53.578;9.760;2023-10-31T00:22:22;10.87;;;5.70;;
56427;SDS011;42331;53.578;9.760;2023-10-31T00:24:53;8.77;;;5.38;;
56427;SDS011;42331;53.578;9.760;2023-10-31T00:27:24;8.15;;;5.57;;
56427;SDS011;42331;53.578;9.760;2023-10-31T00:29:55;10.00;;;5.80;;
56427;SDS011;42331;53.578;9.760;2023-10-31T00:32:26;8.03;;;6.13;;
56427;SDS011;42331;53.578;9.760;2023-10-31T00:34:57;9.33;;;6.30;;
56427;SDS011;42331;53.578;9.760;2023-10-31T00:37:32;15.48;;;7.50;;
56427;SDS011;42331;53.578;9.760;2023-10-31T00:40:03;12.73;;;7.75;;
56427;SDS011;42331;53.578;9.760;2023-10-31T00:42:34;13.05;;;7.65;;
56427;SDS011;42331;53.578;9.760;2023-10-31T00:45:06;15.27;;;9.00;;
56427;SDS011;42331;53.578;9.760;2023-10-31T00:47:37;12.15;;;7.90;;
56427;SDS011;42331;53.578;9.760;2023-10-31T00:50:08;15.55;;;9.40;;
56427;SDS011;42331;53.578;9.760;2023-10-31T00:52:39;13.25;;;8.70;;
56427;SDS011;42331;53.578;9.760;2023-10-31T00:55:10;15.07;;;8.57;;
56427;SDS011;42331;53.578;9.760;2023-10-31T00:57:42;14.60;;;8.60;;
56427;SDS011;42331;53.578;9.760;2023-10-31T01:00:13;18.47;;;8.87;;
56427;SDS011;42331;53.578;9.760;2023-10-31T01:02:44;16.05;;;8.40;;
56427;SDS011;42331;53.578;9.760;2023-10-31T01:05:15;12.47;;;7.83;;
56427;SDS011;42331;53.578;9.760;2023-10-31T01:07:47;12.38;;;6.82;;
56427;SDS011;42331;53.578;9.760;2023-10-31T01:10:18;11.63;;;7.20;;
56427;SDS011;42331;53.578;9.760;2023-10-31T01:12:49;14.23;;;7.83;;
56427;SDS011;42331;53.578;9.760;2023-10-31T01:15:20;13.63;;;6.93;;
56427;SDS011;42331;53.578;9.760;2023-10-31T01:17:51;9.85;;;6.57;;
56427;SDS011;42331;53.578;9.760;2023-10-31T01:20:23;12.23;;;7.43;;
56427;SDS011;42331;53.578;9.760;2023-10-31T01:22:54;11.27;;;6.70;;
56427;SDS011;42331;53.578;9.760;2023-10-31T01:25:25;10.65;;;6.68;;
56427;SDS011;42331;53.578;9.760;2023-10-31T01:27:56;14.60;;;7.28;;
56427;SDS011;42331;53.578;9.760;2023-10-31T01:30:27;12.15;;;6.72;;
56427;SDS011;42331;53.578;9.760;2023-10-31T01:32:58;7.03;;;4.40;;
56427;SDS011;42331;53.578;9.760;2023-10-31T01:35:29;9.00;;;4.82;;
56427;SDS011;42331;53.578;9.760;2023-10-31T01:38:00;11.35;;;6.40;;
56427;SDS011;42331;53.578;9.760;2023-10-31T01:40:31;12.48;;;6.57;;
56427;SDS011;42331;53.578;9.760;2023-10-31T01:43:02;9.87;;;5.90;;
56427;SDS011;42331;53.578;9.760;2023-10-31T01:45:33;14.82;;;6.55;;
56427;SDS011;42331;53.578;9.760;2023-10-31T01:48:05;12.73;;;6.30;;
56427;SDS011;42331;53.578;9.760;2023-10-31T01:50:36;11.05;;;6.40;;
56427;SDS011;42331;53.578;9.760;2023-10-31T01:53:07;8.73;;;5.80;;
56427;SDS011;42331;53.578;9.760;2023-10-31T01:55:38;9.20;;;5.13;;
56427;SDS011;42331;53.578;9.760;2023-10-31T01:58:09;12.47;;;5.70;;
56427;SDS011;42331;53.578;9.760;2023-10-31T02:00:41;12.80;;;6.82;;
56427;SDS011;42331;53.578;9.760;2023-10-31T02:03:12;9.50;;;5.63;;
56427;SDS011;42331;53.578;9.760;2023-10-31T02:05:45;10.25;;;5.72;;
56427;SDS011;42331;53.578;9.760;2023-10-31T02:08:16;10.18;;;4.88;;
56427;SDS011;42331;53.578;9.760;2023-10-31T02:10:47;6.10;;;3.90;;
56427;SDS011;42331;53.578;9.760;2023-10-31T02:13:18;8.55;;;5.57;;
56427;SDS011;42331;53.578;9.760;2023-10-31T02:15:49;9.30;;;5.38;;
56427;SDS011;42331;53.578;9.760;2023-10-31T02:18:21;14.30;;;5.30;;
56427;SDS011;42331;53.578;9.760;2023-10-31T02:20:52;8.45;;;5.22;;
56427;SDS011;42331;53.578;9.760;2023-10-31T02:23:23;8.83;;;5.00;;
56427;SDS011;42331;53.578;9.760;2023-10-31T02:25:54;8.73;;;4.85;;
56427;SDS011;42331;53.578;9.760;2023-10-31T02:28:26;8.85;;;4.50;;
56427;SDS011;42331;53.578;9.760;2023-10-31T02:30:58;11.23;;;5.00;;
56427;SDS011;42331;53.578;9.760;2023-10-31T02:33:29;7.90;;;5.50;;
56427;SDS011;42331;53.578;9.760;2023-10-31T02:36:00;6.27;;;4.13;;
56427;SDS011;42331;53.578;9.760;2023-10-31T02:38:31;5.50;;;3.58;;
56427;SDS011;42331;53.578;9.760;2023-10-31T02:41:02;8.82;;;5.68;;
56427;SDS011;42331;53.578;9.760;2023-10-31T02:43:34;12.32;;;6.65;;
56427;SDS011;42331;53.578;9.760;2023-10-31T02:46:05;8.45;;;5.38;;
56427;SDS011;42331;53.578;9.760;2023-10-31T02:48:36;6.18;;;4.43;;
56427;SDS011;42331;53.578;9.760;2023-10-31T02:51:10;7.85;;;4.88;;
56427;SDS011;42331;53.578;9.760;2023-10-31T02:53:41;9.73;;;5.47;;
56427;SDS011;42331;53.578;9.760;2023-10-31T02:56:12;8.15;;;4.97;;
56427;SDS011;42331;53.578;9.760;2023-10-31T02:58:44;9.80;;;5.35;;
56427;SDS011;42331;53.578;9.760;2023-10-31T03:01:15;8.07;;;4.50;;
56427;SDS011;42331;53.578;9.760;2023-10-31T03:03:48;9.13;;;5.00;;
56427;SDS011;42331;53.578;9.760;2023-10-31T03:06:19;8.38;;;4.95;;
56427;SDS011;42331;53.578;9.760;2023-10-31T03:08:50;7.43;;;4.83;;
56427;SDS011;42331;53.578;9.760;2023-10-31T03:11:24;7.23;;;4.40;;
56427;SDS011;42331;53.578;9.760;2023-10-31T03:13:56;10.32;;;4.55;;
56427;SDS011;42331;53.578;9.760;2023-10-31T03:16:27;9.38;;;5.15;;
56427;SDS011;42331;53.578;9.760;2023-10-31T03:18:58;7.63;;;4.63;;
56427;SDS011;42331;53.578;9.760;2023-10-31T03:21:29;7.20;;;4.77;;
56427;SDS011;42331;53.578;9.760;2023-10-31T03:24:00;8.93;;;5.07;;
56427;SDS011;42331;53.578;9.760;2023-10-31T03:26:31;11.03;;;4.83;;
56427;SDS011;42331;53.578;9.760;2023-10-31T03:29:02;12.00;;;5.13;;
56427;SDS011;42331;53.578;9.760;2023-10-31T03:31:33;10.53;;;5.47;;
56427;SDS011;42331;53.578;9.760;2023-10-31T03:34:04;7.40;;;4.73;;
56427;SDS011;42331;53.578;9.760;2023-10-31T03:36:35;10.80;;;5.40;;
56427;SDS011;42331;53.578;9.760;2023-10-31T03:39:06;6.40;;;4.22;;
56427;SDS011;42331;53.578;9.760;2023-10-31T03:41:38;8.73;;;5.00;;
56427;SDS011;42331;53.578;9.760;2023-10-31T03:44:09;10.67;;;5.47;;
56427;SDS011;42331;53.578;9.760;2023-10-31T03:46:40;6.80;;;4.78;;
56427;SDS011;42331;53.578;9.760;2023-10-31T03:49:11;7.60;;;5.53;;
56427;SDS011;42331;53.578;9.760;2023-10-31T03:51:42;23.95;;;7.55;;
56427;SDS011;42331;53.578;9.760;2023-10-31T03:54:13;11.68;;;6.10;;
56427;SDS011;42331;53.578;9.760;2023-10-31T03:56:44;12.77;;;6.25;;
56427;SDS011;42331;53.578;9.760;2023-10-31T03:59:15;9.88;;;5.85;;
56427;SDS011;42331;53.578;9.760;2023-10-31T04:01:46;9.37;;;6.00;;
56427;SDS011;42331;53.578;9.760;2023-10-31T04:04:17;9.95;;;6.18;;
56427;SDS011;42331;53.578;9.760;2023-10-31T04:06:48;9.77;;;6.50;;
56427;SDS011;42331;53.578;9.760;2023-10-31T04:09:19;9.73;;;6.38;;
56427;SDS011;42331;53.578;9.760;2023-10-31T04:11:50;11.27;;;6.40;;
56427;SDS011;42331;53.578;9.760;2023-10-31T04:14:22;13.27;;;7.82;;
56427;SDS011;42331;53.578;9.760;2023-10-31T04:16:53;12.33;;;6.57;;
56427;SDS011;42331;53.578;9.760;2023-10-31T04:19:24;9.83;;;6.27;;
56427;SDS011;42331;53.578;9.760;2023-10-31T04:21:55;10.30;;;6.75;;
56427;SDS011;42331;53.578;9.760;2023-10-31T04:24:26;14.57;;;7.38;;
56427;SDS011;42331;53.578;9.760;2023-10-31T04:26:57;10.43;;;6.43;;
56427;SDS011;42331;53.578;9.760;2023-10-31T04:29:28;10.70;;;6.90;;
56427;SDS011;42331;53.578;9.760;2023-10-31T04:31:59;10.67;;;6.97;;
56427;SDS011;42331;53.578;9.760;2023-10-31T04:34:30;11.43;;;6.93;;
56427;SDS011;42331;53.578;9.760;2023-10-31T04:37:01;10.88;;;6.78;;
56427;SDS011;42331;53.578;9.760;2023-10-31T04:39:32;14.93;;;7.53;;
56427;SDS011;42331;53.578;9.760;2023-10-31T04:42:03;14.40;;;7.77;;
56427;SDS011;42331;53.578;9.760;2023-10-31T04:44:35;13.27;;;7.80;;
56427;SDS011;42331;53.578;9.760;2023-10-31T04:47:06;10.27;;;6.10;;
56427;SDS011;42331;53.578;9.760;2023-10-31T04:49:37;12.93;;;7.70;;
56427;SDS011;42331;53.578;9.760;2023-10-31T04:52:08;13.20;;;6.88;;
56427;SDS011;42331;53.578;9.760;2023-10-31T04:54:39;11.55;;;7.45;;
56427;SDS011;42331;53.578;9.760;2023-10-31T04:57:10;12.25;;;7.30;;
56427;SDS011;42331;53.578;9.760;2023-10-31T04:59:41;13.43;;;7.47;;
56427;SDS011;42331;53.578;9.760;2023-10-31T05:02:13;12.73;;;7.70;;
56427;SDS011;42331;53.578;9.760;2023-10-31T05:04:44;12.05;;;7.03;;
56427;SDS011;42331;53.578;9.760;2023-10-31T05:07:15;12.10;;;6.80;;
56427;SDS011;42331;53.578;9.760;2023-10-31T05:09:46;11.65;;;7.53;;
56427;SDS011;42331;53.578;9.760;2023-10-31T05:12:17;14.90;;;7.75;;
56427;SDS011;42331;53.578;9.760;2023-10-31T05:14:48;12.05;;;7.18;;
56427;SDS011;42331;53.578;9.760;2023-10-31T05:17:19;12.00;;;7.63;;
56427;SDS011;42331;53.578;9.760;2023-10-31T05:19:50;13.70;;;8.83;;
56427;SDS011;42331;53.578;9.760;2023-10-31T05:22:21;13.48;;;8.05;;
56427;SDS011;42331;53.578;9.760;2023-10-31T05:24:52;13.95;;;8.13;;
56427;SDS011;42331;53.578;9.760;2023-10-31T05:27:24;13.50;;;7.65;;
56427;SDS011;42331;53.578;9.760;2023-10-31T05:29:55;14.25;;;8.52;;
56427;SDS011;42331;53.578;9.760;2023-10-31T05:32:26;14.70;;;8.65;;
56427;SDS011;42331;53.578;9.760;2023-10-31T05:34:57;14.57;;;8.43;;
56427;SDS011;42331;53.578;9.760;2023-10-31T05:37:28;17.70;;;9.18;;
56427;SDS011;42331;53.578;9.760;2023-10-31T05:39:59;14.48;;;8.70;;
56427;SDS011;42331;53.578;9.760;2023-10-31T05:45:02;18.25;;;9.63;;
56427;SDS011;42331;53.578;9.760;2023-10-31T05:47:33;15.45;;;9.05;;
56427;SDS011;42331;53.578;9.760;2023-10-31T05:50:04;15.97;;;9.23;;
56427;SDS011;42331;53.578;9.760;2023-10-31T05:52:36;18.92;;;9.98;;
56427;SDS011;42331;53.578;9.760;2023-10-31T05:55:07;18.95;;;10.00;;
56427;SDS011;42331;53.578;9.760;2023-10-31T05:57:38;16.40;;;9.75;;
56427;SDS011;42331;53.578;9.760;2023-10-31T06:00:09;24.17;;;9.63;;
56427;SDS011;42331;53.578;9.760;2023-10-31T06:02:40;19.30;;;9.90;;
56427;SDS011;42331;53.578;9.760;2023-10-31T06:05:11;26.25;;;10.10;;
56427;SDS011;42331;53.578;9.760;2023-10-31T06:07:42;21.33;;;10.83;;
56427;SDS011;42331;53.578;9.760;2023-10-31T06:10:14;21.03;;;9.97;;
56427;SDS011;42331;53.578;9.760;2023-10-31T06:12:45;22.23;;;10.80;;
56427;SDS011;42331;53.578;9.760;2023-10-31T06:15:16;23.23;;;10.97;;
56427;SDS011;42331;53.578;9.760;2023-10-31T06:17:47;21.93;;;11.30;;
56427;SDS011;42331;53.578;9.760;2023-10-31T06:22:51;22.00;;;10.48;;
56427;SDS011;42331;53.578;9.760;2023-10-31T06:25:22;24.80;;;10.80;;
56427;SDS011;42331;53.578;9.760;2023-10-31T06:27:53;20.60;;;10.17;;
56427;SDS011;42331;53.578;9.760;2023-10-31T06:30:24;21.70;;;10.48;;
56427;SDS011;42331;53.578;9.760;2023-10-31T06:32:56;23.80;;;11.40;;
56427;SDS011;42331;53.578;9.760;2023-10-31T06:35:27;26.67;;;11.13;;
56427;SDS011;42331;53.578;9.760;2023-10-31T06:37:58;22.63;;;10.93;;
56427;SDS011;42331;53.578;9.760;2023-10-31T06:40:29;23.95;;;11.27;;
56427;SDS011;42331;53.578;9.760;2023-10-31T06:43:01;24.33;;;11.43;;
56427;SDS011;42331;53.578;9.760;2023-10-31T06:45:32;21.63;;;10.57;;
56427;SDS011;42331;53.578;9.760;2023-10-31T06:48:03;22.88;;;10.98;;
56427;SDS011;42331;53.578;9.760;2023-10-31T06:50:35;24.00;;;11.63;;
56427;SDS011;42331;53.578;9.760;2023-10-31T06:53:06;24.42;;;11.75;;
56427;SDS011;42331;53.578;9.760;2023-10-31T06:55:37;21.38;;;10.52;;
56427;SDS011;42331;53.578;9.760;2023-10-31T06:58:08;22.40;;;9.77;;
56427;SDS011;42331;53.578;9.760;2023-10-31T07:00:39;22.52;;;10.63;;
56427;SDS011;42331;53.578;9.760;2023-10-31T07:03:10;20.30;;;8.98;;
56427;SDS011;42331;53.578;9.760;2023-10-31T07:05:45;17.48;;;7.72;;
56427;SDS011;42331;53.578;9.760;2023-10-31T07:08:16;17.07;;;7.77;;
56427;SDS011;42331;53.578;9.760;2023-10-31T07:10:47;8.20;;;4.17;;
56427;SDS011;42331;53.578;9.760;2023-10-31T07:13:18;6.85;;;4.40;;
56427;SDS011;42331;53.578;9.760;2023-10-31T07:15:49;9.77;;;5.07;;
56427;SDS011;42331;53.578;9.760;2023-10-31T07:18:20;8.05;;;5.32;;
56427;SDS011;42331;53.578;9.760;2023-10-31T07:20:51;13.37;;;6.07;;
56427;SDS011;42331;53.578;9.760;2023-10-31T07:23:22;14.52;;;7.30;;
56427;SDS011;42331;53.578;9.760;2023-10-31T07:25:53;12.87;;;7.57;;
56427;SDS011;42331;53.578;9.760;2023-10-31T07:28:24;15.20;;;8.48;;
56427;SDS011;42331;53.578;9.760;2023-10-31T07:30:56;16.53;;;9.67;;
56427;SDS011;42331;53.578;9.760;2023-10-31T07:33:27;15.57;;;9.35;;
56427;SDS011;42331;53.578;9.760;2023-10-31T07:35:58;18.50;;;10.65;;
56427;SDS011;42331;53.578;9.760;2023-10-31T07:38:29;18.90;;;10.80;;
56427;SDS011;42331;53.578;9.760;2023-10-31T07:41:00;15.73;;;9.87;;
56427;SDS011;42331;53.578;9.760;2023-10-31T07:43:31;12.57;;;7.75;;
56427;SDS011;42331;53.578;9.760;2023-10-31T07:46:02;8.70;;;5.50;;
56427;SDS011;42331;53.578;9.760;2023-10-31T07:48:33;5.53;;;3.10;;
56427;SDS011;42331;53.578;9.760;2023-10-31T07:51:04;4.20;;;2.10;;
56427;SDS011;42331;53.578;9.760;2023-10-31T07:53:35;5.53;;;1.80;;
56427;SDS011;42331;53.578;9.760;2023-10-31T07:56:16;3.33;;;1.40;;
56427;SDS011;42331;53.578;9.760;2023-10-31T07:58:47;2.40;;;1.13;;
56427;SDS011;42331;53.578;9.760;2023-10-31T08:01:18;2.35;;;0.85;;
56427;SDS011;42331;53.578;9.760;2023-10-31T08:03:49;1.73;;;1.00;;
56427;SDS011;42331;53.578;9.760;2023-10-31T08:06:20;3.35;;;1.58;;
56427;SDS011;42331;53.578;9.760;2023-10-31T08:08:52;2.70;;;1.10;;
56427;SDS011;42331;53.578;9.760;2023-10-31T08:11:23;3.60;;;1.50;;
56427;SDS011;42331;53.578;9.760;2023-10-31T08:13:54;2.07;;;1.20;;
56427;SDS011;42331;53.578;9.760;2023-10-31T08:16:25;5.00;;;1.73;;
56427;SDS011;42331;53.578;9.760;2023-10-31T08:18:56;1.33;;;0.75;;
56427;SDS011;42331;53.578;9.760;2023-10-31T08:21:27;2.37;;;1.10;;
56427;SDS011;42331;53.578;9.760;2023-10-31T08:24:03;2.13;;;1.15;;
56427;SDS011;42331;53.578;9.760;2023-10-31T08:29:10;0.98;;;0.60;;
56427;SDS011;42331;53.578;9.760;2023-10-31T08:31:42;1.73;;;0.70;;
56427;SDS011;42331;53.578;9.760;2023-10-31T08:34:13;1.20;;;0.85;;
56427;SDS011;42331;53.578;9.760;2023-10-31T08:36:44;1.30;;;0.65;;
56427;SDS011;42331;53.578;9.760;2023-10-31T08:39:15;1.35;;;0.55;;
56427;SDS011;42331;53.578;9.760;2023-10-31T08:41:54;0.97;;;0.57;;
56427;SDS011;42331;53.578;9.760;2023-10-31T08:44:25;2.80;;;0.75;;
56427;SDS011;42331;53.578;9.760;2023-10-31T08:46:56;1.23;;;0.70;;
56427;SDS011;42331;53.578;9.760;2023-10-31T08:49:27;2.50;;;0.50;;
56427;SDS011;42331;53.578;9.760;2023-10-31T08:51:58;1.07;;;0.50;;
56427;SDS011;42331;53.578;9.760;2023-10-31T08:54:32;1.38;;;0.60;;
56427;SDS011;42331;53.578;9.760;2023-10-31T08:57:03;1.08;;;0.50;;
56427;SDS011;42331;53.578;9.760;2023-10-31T08:59:34;2.10;;;0.60;;
56427;SDS011;42331;53.578;9.760;2023-10-31T09:02:05;0.60;;;0.40;;
56427;SDS011;42331;53.578;9.760;2023-10-31T09:04:36;2.13;;;0.50;;
56427;SDS011;42331;53.578;9.760;2023-10-31T09:07:07;18.20;;;1.07;;
56427;SDS011;42331;53.578;9.760;2023-10-31T09:09:38;2.45;;;0.82;;
56427;SDS011;42331;53.578;9.760;2023-10-31T09:12:10;2.72;;;1.20;;
56427;SDS011;42331;53.578;9.760;2023-10-31T09:14:41;2.60;;;1.40;;
56427;SDS011;42331;53.578;9.760;2023-10-31T09:17:12;1.92;;;0.95;;
56427;SDS011;42331;53.578;9.760;2023-10-31T09:19:43;2.87;;;0.30;;
56427;SDS011;42331;53.578;9.760;2023-10-31T09:22:14;1.35;;;0.50;;
56427;SDS011;42331;53.578;9.760;2023-10-31T09:27:17;1.70;;;0.60;;
56427;SDS011;42331;53.578;9.760;2023-10-31T09:29:48;1.60;;;0.70;;
56427;SDS011;42331;53.578;9.760;2023-10-31T09:32:21;3.00;;;0.70;;
56427;SDS011;42331;53.578;9.760;2023-10-31T09:34:52;1.48;;;0.45;;
56427;SDS011;42331;53.578;9.760;2023-10-31T09:37:23;2.22;;;0.50;;
56427;SDS011;42331;53.578;9.760;2023-10-31T09:39:54;2.13;;;0.60;;
56427;SDS011;42331;53.578;9.760;2023-10-31T09:42:25;1.57;;;0.50;;
56427;SDS011;42331;53.578;9.760;2023-10-31T09:44:57;2.35;;;0.47;;
56427;SDS011;42331;53.578;9.760;2023-10-31T09:47:28;2.97;;;0.80;;
56427;SDS011;42331;53.578;9.760;2023-10-31T09:50:00;1.73;;;0.65;;
56427;SDS011;42331;53.578;9.760;2023-10-31T09:52:31;3.53;;;0.70;;
56427;SDS011;42331;53.578;9.760;2023-10-31T09:55:03;3.42;;;0.90;;
56427;SDS011;42331;53.578;9.760;2023-10-31T09:57:36;2.20;;;1.00;;
56427;SDS011;42331;53.578;9.760;2023-10-31T10:00:07;2.95;;;0.93;;
56427;SDS011;42331;53.578;9.760;2023-10-31T10:02:39;2.47;;;1.50;;
56427;SDS011;42331;53.578;9.760;2023-10-31T10:05:10;3.03;;;1.50;;
56427;SDS011;42331;53.578;9.760;2023-10-31T10:07:42;1.48;;;0.85;;
56427;SDS011;42331;53.578;9.760;2023-10-31T10:10:14;3.30;;;0.60;;
56427;SDS011;42331;53.578;9.760;2023-10-31T10:12:45;1.67;;;0.60;;
56427;SDS011;42331;53.578;9.760;2023-10-31T10:15:16;3.35;;;0.63;;
56427;SDS011;42331;53.578;9.760;2023-10-31T10:17:50;2.63;;;0.70;;
56427;SDS011;42331;53.578;9.760;2023-10-31T10:20:22;3.83;;;0.70;;
56427;SDS011;42331;53.578;9.760;2023-10-31T10:22:53;2.40;;;0.57;;
56427;SDS011;42331;53.578;9.760;2023-10-31T10:25:25;1.70;;;0.75;;
56427;SDS011;42331;53.578;9.760;2023-10-31T10:27:58;2.33;;;0.70;;
56427;SDS011;42331;53.578;9.760;2023-10-31T10:30:29;4.17;;;0.80;;
56427;SDS011;42331;53.578;9.760;2023-10-31T10:33:00;2.15;;;0.80;;
56427;SDS011;42331;53.578;9.760;2023-10-31T10:35:32;7.18;;;1.35;;
56427;SDS011;42331;53.578;9.760;2023-10-31T10:38:05;2.95;;;0.70;;
56427;SDS011;42331;53.578;9.760;2023-10-31T10:40:38;3.28;;;0.82;;
56427;SDS011;42331;53.578;9.760;2023-10-31T10:43:23;2.30;;;0.90;;
56427;SDS011;42331;53.578;9.760;2023-10-31T10:45:55;2.50;;;0.85;;
56427;SDS011;42331;53.578;9.760;2023-10-31T10:48:27;4.22;;;0.60;;
56427;SDS011;42331;53.578;9.760;2023-10-31T10:53:30;3.38;;;0.70;;
56427;SDS011;42331;53.578;9.760;2023-10-31T10:56:10;2.80;;;0.82;;
56427;SDS011;42331;53.578;9.760;2023-10-31T10:58:49;2.92;;;0.77;;
56427;SDS011;42331;53.578;9.760;2023-10-31T11:01:22;4.80;;;1.00;;
56427;SDS011;42331;53.578;9.760;2023-10-31T11:03:54;2.00;;;0.88;;
56427;SDS011;42331;53.578;9.760;2023-10-31T11:06:26;2.13;;;1.10;;
56427;SDS011;42331;53.578;9.760;2023-10-31T11:08:57;3.13;;;1.40;;
56427;SDS011;42331;53.578;9.760;2023-10-31T11:11:29;2.67;;;1.25;;
56427;SDS011;42331;53.578;9.760;2023-10-31T11:14:00;6.00;;;3.70;;
56427;SDS011;42331;53.578;9.760;2023-10-31T11:19:03;2.58;;;1.00;;
56427;SDS011;42331;53.578;9.760;2023-10-31T11:21:34;2.10;;;0.70;;
56427;SDS011;42331;53.578;9.760;2023-10-31T11:24:05;4.83;;;0.97;;
56427;SDS011;42331;53.578;9.760;2023-10-31T11:26:37;5.22;;;1.23;;
56427;SDS011;42331;53.578;9.760;2023-10-31T11:29:21;4.20;;;0.85;;
56427;SDS011;42331;53.578;9.760;2023-10-31T11:31:55;3.93;;;1.00;;
56427;SDS011;42331;53.578;9.760;2023-10-31T11:34:30;4.07;;;1.30;;
56427;SDS011;42331;53.578;9.760;2023-10-31T11:37:21;2.28;;;0.80;;
56427;SDS011;42331;53.578;9.760;2023-10-31T11:42:48;4.93;;;0.68;;
56427;SDS011;42331;53.578;9.760;2023-10-31T11:45:27;3.08;;;0.70;;
56427;SDS011;42331;53.578;9.760;2023-10-31T11:47:58;1.13;;;0.40;;
56427;SDS011;42331;53.578;9.760;2023-10-31T11:50:30;0.90;;;0.40;;
56427;SDS011;42331;53.578;9.760;2023-10-31T11:55:35;1.83;;;0.60;;
56427;SDS011;42331;53.578;9.760;2023-10-31T11:58:16;1.10;;;0.43;;
56427;SDS011;42331;53.578;9.760;2023-10-31T12:00:49;1.40;;;0.47;;
56427;SDS011;42331;53.578;9.760;2023-10-31T12:03:20;3.42;;;0.50;;
56427;SDS011;42331;53.578;9.760;2023-10-31T12:05:52;1.85;;;0.40;;
56427;SDS011;42331;53.578;9.760;2023-10-31T12:08:44;1.80;;;0.50;;
56427;SDS011;42331;53.578;9.760;2023-10-31T12:11:21;1.00;;;0.50;;
56427;SDS011;42331;53.578;9.760;2023-10-31T12:13:53;1.48;;;0.40;;
56427;SDS011;42331;53.578;9.760;2023-10-31T12:16:29;1.92;;;0.50;;
56427;SDS011;42331;53.578;9.760;2023-10-31T12:19:02;0.85;;;0.20;;
56427;SDS011;42331;53.578;9.760;2023-10-31T12:21:37;0.22;;;0.13;;
56427;SDS011;42331;53.578;9.760;2023-10-31T12:24:10;1.00;;;0.20;;
56427;SDS011;42331;53.578;9.760;2023-10-31T12:26:42;0.32;;;0.13;;
56427;SDS011;42331;53.578;9.760;2023-10-31T12:29:15;1.33;;;0.10;;
56427;SDS011;42331;53.578;9.760;2023-10-31T12:34:21;1.42;;;0.40;;
56427;SDS011;42331;53.578;9.760;2023-10-31T12:36:53;0.30;;;0.20;;
56427;SDS011;42331;53.578;9.760;2023-10-31T12:39:25;2.13;;;0.40;;
56427;SDS011;42331;53.578;9.760;2023-10-31T12:41:57;3.97;;;0.95;;
56427;SDS011;42331;53.578;9.760;2023-10-31T12:44:29;2.22;;;0.57;;
56427;SDS011;42331;53.578;9.760;2023-10-31T12:47:00;2.33;;;0.60;;
56427;SDS011;42331;53.578;9.760;2023-10-31T12:49:31;1.90;;;0.47;;
56427;SDS011;42331;53.578;9.760;2023-10-31T12:52:03;1.83;;;0.70;;
56427;SDS011;42331;53.578;9.760;2023-10-31T12:54:35;1.75;;;0.50;;
56427;SDS011;42331;53.578;9.760;2023-10-31T12:57:07;2.50;;;0.47;;
56427;SDS011;42331;53.578;9.760;2023-10-31T12:59:38;2.97;;;0.40;;
56427;SDS011;42331;53.578;9.760;2023-10-31T13:02:09;1.80;;;0.50;;
56427;SDS011;42331;53.578;9.760;2023-10-31T13:04:41;3.13;;;1.10;;
56427;SDS011;42331;53.578;9.760;2023-10-31T13:07:12;2.30;;;0.70;;
56427;SDS011;42331;53.578;9.760;2023-10-31T13:09:43;1.85;;;0.43;;
56427;SDS011;42331;53.578;9.760;2023-10-31T13:12:16;2.15;;;0.40;;
56427;SDS011;42331;53.578;9.760;2023-10-31T13:14:48;2.35;;;0.50;;
56427;SDS011;42331;53.578;9.760;2023-10-31T13:17:19;1.80;;;0.80;;
56427;SDS011;42331;53.578;9.760;2023-10-31T13:19:50;4.95;;;1.33;;
56427;SDS011;42331;53.578;9.760;2023-10-31T13:22:21;3.90;;;1.13;;
56427;SDS011;42331;53.578;9.760;2023-10-31T13:24:52;2.80;;;1.50;;
56427;SDS011;42331;53.578;9.760;2023-10-31T13:27:23;3.20;;;1.37;;
56427;SDS011;42331;53.578;9.760;2023-10-31T13:29:54;4.53;;;1.47;;
56427;SDS011;42331;53.578;9.760;2023-10-31T13:32:26;2.70;;;1.10;;
56427;SDS011;42331;53.578;9.760;2023-10-31T13:34:57;1.92;;;0.90;;
56427;SDS011;42331;53.578;9.760;2023-10-31T13:37:28;1.83;;;0.80;;
56427;SDS011;42331;53.578;9.760;2023-10-31T13:39:59;1.52;;;0.60;;
56427;SDS011;42331;53.578;9.760;2023-10-31T13:42:30;2.23;;;0.90;;
56427;SDS011;42331;53.578;9.760;2023-10-31T13:45:02;1.35;;;0.68;;
56427;SDS011;42331;53.578;9.760;2023-10-31T13:47:33;2.15;;;0.88;;
56427;SDS011;42331;53.578;9.760;2023-10-31T13:50:05;2.47;;;0.75;;
56427;SDS011;42331;53.578;9.760;2023-10-31T13:52:38;1.42;;;0.77;;
56427;SDS011;42331;53.578;9.760;2023-10-31T13:55:10;3.13;;;0.70;;
56427;SDS011;42331;53.578;9.760;2023-10-31T13:57:41;1.90;;;0.88;;
56427;SDS011;42331;53.578;9.760;2023-10-31T14:00:12;4.32;;;0.70;;
56427;SDS011;42331;53.578;9.760;2023-10-31T14:02:43;2.53;;;0.60;;
56427;SDS011;42331;53.578;9.760;2023-10-31T14:05:14;3.17;;;0.53;;
56427;SDS011;42331;53.578;9.760;2023-10-31T14:07:46;2.45;;;0.50;;
56427;SDS011;42331;53.578;9.760;2023-10-31T14:10:17;1.73;;;0.55;;
56427;SDS011;42331;53.578;9.760;2023-10-31T14:12:49;2.88;;;0.98;;
56427;SDS011;42331;53.578;9.760;2023-10-31T14:15:22;2.88;;;0.70;;
56427;SDS011;42331;53.578;9.760;2023-10-31T14:17:53;1.20;;;0.90;;
56427;SDS011;42331;53.578;9.760;2023-10-31T14:20:25;1.73;;;0.57;;
56427;SDS011;42331;53.578;9.760;2023-10-31T14:22:56;0.82;;;0.45;;
56427;SDS011;42331;53.578;9.760;2023-10-31T14:25:27;1.00;;;0.50;;
56427;SDS011;42331;53.578;9.760;2023-10-31T14:27:58;2.67;;;0.82;;
56427;SDS011;42331;53.578;9.760;2023-10-31T14:30:29;2.35;;;0.40;;
56427;SDS011;42331;53.578;9.760;2023-10-31T14:33:01;2.13;;;0.45;;
56427;SDS011;42331;53.578;9.760;2023-10-31T14:35:32;1.47;;;0.47;;
56427;SDS011;42331;53.578;9.760;2023-10-31T14:38:05;4.05;;;0.60;;
56427;SDS011;42331;53.578;9.760;2023-10-31T14:40:36;1.58;;;0.25;;
56427;SDS011;42331;53.578;9.760;2023-10-31T14:43:07;5.47;;;0.63;;
56427;SDS011;42331;53.578;9.760;2023-10-31T14:45:38;6.40;;;0.80;;
56427;SDS011;42331;53.578;9.760;2023-10-31T14:48:09;2.45;;;0.35;;
56427;SDS011;42331;53.578;9.760;2023-10-31T14:50:40;2.17;;;0.60;;
56427;SDS011;42331;53.578;9.760;2023-10-31T14:53:11;2.88;;;0.50;;
56427;SDS011;42331;53.578;9.760;2023-10-31T14:55:43;1.05;;;0.50;;
56427;SDS011;42331;53.578;9.760;2023-10-31T14:58:14;2.65;;;0.50;;
56427;SDS011;42331;53.578;9.760;2023-10-31T15:00:45;4.13;;;0.67;;
56427;SDS011;42331;53.578;9.760;2023-10-31T15:03:17;3.13;;;0.50;;
56427;SDS011;42331;53.578;9.760;2023-10-31T15:05:48;3.20;;;0.63;;
56427;SDS011;42331;53.578;9.760;2023-10-31T15:08:19;2.57;;;0.67;;
56427;SDS011;42331;53.578;9.760;2023-10-31T15:10:53;2.23;;;0.97;;
56427;SDS011;42331;53.578;9.760;2023-10-31T15:13:26;4.55;;;1.45;;
56427;SDS011;42331;53.578;9.760;2023-10-31T15:15:57;4.53;;;0.70;;
56427;SDS011;42331;53.578;9.760;2023-10-31T15:18:28;0.90;;;0.53;;
56427;SDS011;42331;53.578;9.760;2023-10-31T15:20:59;4.50;;;0.60;;
56427;SDS011;42331;53.578;9.760;2023-10-31T15:23:30;2.22;;;0.88;;
56427;SDS011;42331;53.578;9.760;2023-10-31T15:26:01;23.50;;;11.80;;
56427;SDS011;42331;53.578;9.760;2023-10-31T15:28:33;2.05;;;1.00;;
56427;SDS011;42331;53.578;9.760;2023-10-31T15:31:04;4.90;;;1.50;;
56427;SDS011;42331;53.578;9.760;2023-10-31T15:33:35;4.00;;;0.95;;